sensor_id;sensor_type;location;lat;lon;timestamp;P1;durP1;ratioP1;P2;durP2;ratioP2
16967;SDS011;64862;54.398;10.126;2024-03-25T00:04:02;6.18;;;3.35;;
16967;SDS011;64862;54.398;10.126;2024-03-25T00:14:05;6.90;;;3.75;;
16967;SDS011;64862;54.398;10.126;2024-03-25T00:24:07;5.38;;;3.10;;
16967;SDS011;64862;54.398;10.126;2024-03-25T00:34:11;5.55;;;2.70;;
16967;SDS011;64862;54.398;10.126;2024-03-25T00:44:12;5.18;;;2.55;;
16967;SDS011;64862;54.398;10.126;2024-03-25T00:54:16;4.28;;;2.53;;
16967;SDS011;64862;54.398;10.126;2024-03-25T01:04:18;4.20;;;2.60;;
16967;SDS011;64862;54.398;10.126;2024-03-25T01:14:21;6.30;;;3.30;;
16967;SDS011;64862;54.398;10.126;2024-03-25T01:24:23;9.25;;;3.83;;
16967;SDS011;64862;54.398;10.126;2024-03-25T01:34:26;8.23;;;4.22;;
16967;SDS011;64862;54.398;10.126;2024-03-25T01:44:28;7.53;;;3.83;;
16967;SDS011;64862;54.398;10.126;2024-03-25T01:54:31;7.93;;;3.90;;
16967;SDS011;64862;54.398;10.126;2024-03-25T02:04:34;7.05;;;3.58;;
16967;SDS011;64862;54.398;10.126;2024-03-25T02:14:37;8.90;;;3.97;;
16967;SDS011;64862;54.398;10.126;2024-03-25T02:24:39;9.93;;;3.88;;
16967;SDS011;64862;54.398;10.126;2024-03-25T02:34:45;10.00;;;3.72;;
16967;SDS011;64862;54.398;10.126;2024-03-25T02:44:50;11.98;;;3.65;;
16967;SDS011;64862;54.398;10.126;2024-03-25T02:54:55;10.95;;;4.35;;
16967;SDS011;64862;54.398;10.126;2024-03-25T03:04:57;12.57;;;4.28;;
16967;SDS011;64862;54.398;10.126;2024-03-25T03:15:01;12.50;;;4.10;;
16967;SDS011;64862;54.398;10.126;2024-03-25T03:25:03;10.48;;;3.92;;
16967;SDS011;64862;54.398;10.126;2024-03-25T03:35:08;12.23;;;3.80;;
16967;SDS011;64862;54.398;10.126;2024-03-25T03:45:11;9.05;;;3.75;;
16967;SDS011;64862;54.398;10.126;2024-03-25T03:55:15;7.60;;;3.22;;
16967;SDS011;64862;54.398;10.126;2024-03-25T04:05:17;7.28;;;3.05;;
16967;SDS011;64862;54.398;10.126;2024-03-25T04:15:22;7.68;;;3.08;;
16967;SDS011;64862;54.398;10.126;2024-03-25T04:25:24;7.07;;;2.70;;
16967;SDS011;64862;54.398;10.126;2024-03-25T04:35:28;5.25;;;2.50;;
16967;SDS011;64862;54.398;10.126;2024-03-25T04:45:30;7.80;;;2.00;;
16967;SDS011;64862;54.398;10.126;2024-03-25T04:55:33;5.00;;;1.70;;
16967;SDS011;64862;54.398;10.126;2024-03-25T05:05:34;3.75;;;1.60;;
16967;SDS011;64862;54.398;10.126;2024-03-25T05:15:36;6.18;;;1.75;;
16967;SDS011;64862;54.398;10.126;2024-03-25T05:25:37;4.88;;;1.60;;
16967;SDS011;64862;54.398;10.126;2024-03-25T05:35:40;6.93;;;1.88;;
16967;SDS011;64862;54.398;10.126;2024-03-25T05:45:41;4.78;;;1.98;;
16967;SDS011;64862;54.398;10.126;2024-03-25T05:55:52;4.43;;;1.80;;
16967;SDS011;64862;54.398;10.126;2024-03-25T06:05:53;4.28;;;1.95;;
16967;SDS011;64862;54.398;10.126;2024-03-25T06:15:55;5.55;;;1.70;;
16967;SDS011;64862;54.398;10.126;2024-03-25T06:25:56;5.60;;;1.80;;
16967;SDS011;64862;54.398;10.126;2024-03-25T06:35:59;6.35;;;1.70;;
16967;SDS011;64862;54.398;10.126;2024-03-25T06:46:00;7.45;;;2.03;;
16967;SDS011;64862;54.398;10.126;2024-03-25T06:56:02;9.63;;;2.17;;
16967;SDS011;64862;54.398;10.126;2024-03-25T07:06:04;8.32;;;1.95;;
16967;SDS011;64862;54.398;10.126;2024-03-25T07:16:07;6.13;;;1.80;;
16967;SDS011;64862;54.398;10.126;2024-03-25T07:26:08;5.45;;;1.90;;
16967;SDS011;64862;54.398;10.126;2024-03-25T07:36:10;6.18;;;1.80;;
16967;SDS011;64862;54.398;10.126;2024-03-25T07:46:11;8.82;;;1.70;;
16967;SDS011;64862;54.398;10.126;2024-03-25T07:56:14;7.80;;;1.73;;
16967;SDS011;64862;54.398;10.126;2024-03-25T08:06:15;8.77;;;1.67;;
16967;SDS011;64862;54.398;10.126;2024-03-25T08:16:18;12.98;;;1.80;;
16967;SDS011;64862;54.398;10.126;2024-03-25T08:26:19;9.48;;;1.65;;
16967;SDS011;64862;54.398;10.126;2024-03-25T08:36:22;5.90;;;1.27;;
16967;SDS011;64862;54.398;10.126;2024-03-25T08:46:24;12.23;;;1.80;;
16967;SDS011;64862;54.398;10.126;2024-03-25T08:56:26;9.85;;;1.70;;
16967;SDS011;64862;54.398;10.126;2024-03-25T09:06:27;6.60;;;1.42;;
16967;SDS011;64862;54.398;10.126;2024-03-25T09:16:30;6.80;;;1.60;;
16967;SDS011;64862;54.398;10.126;2024-03-25T09:26:31;10.10;;;1.75;;
16967;SDS011;64862;54.398;10.126;2024-03-25T09:36:33;9.07;;;1.38;;
16967;SDS011;64862;54.398;10.126;2024-03-25T09:46:34;7.05;;;1.40;;
16967;SDS011;64862;54.398;10.126;2024-03-25T09:56:38;8.60;;;1.73;;
16967;SDS011;64862;54.398;10.126;2024-03-25T10:06:39;7.65;;;1.52;;
16967;SDS011;64862;54.398;10.126;2024-03-25T10:16:42;8.82;;;1.80;;
16967;SDS011;64862;54.398;10.126;2024-03-25T10:26:43;12.35;;;1.98;;
16967;SDS011;64862;54.398;10.126;2024-03-25T10:36:46;11.93;;;1.90;;
16967;SDS011;64862;54.398;10.126;2024-03-25T10:46:47;13.80;;;2.10;;
16967;SDS011;64862;54.398;10.126;2024-03-25T10:56:51;12.82;;;2.40;;
16967;SDS011;64862;54.398;10.126;2024-03-25T11:06:52;13.68;;;1.70;;
16967;SDS011;64862;54.398;10.126;2024-03-25T11:16:55;8.02;;;1.58;;
16967;SDS011;64862;54.398;10.126;2024-03-25T11:26:56;10.18;;;1.70;;
16967;SDS011;64862;54.398;10.126;2024-03-25T11:36:58;7.10;;;1.23;;
16967;SDS011;64862;54.398;10.126;2024-03-25T11:46:59;11.52;;;1.38;;
16967;SDS011;64862;54.398;10.126;2024-03-25T11:57:02;7.95;;;1.33;;
16967;SDS011;64862;54.398;10.126;2024-03-25T12:07:03;10.02;;;1.33;;
16967;SDS011;64862;54.398;10.126;2024-03-25T12:17:06;7.13;;;1.20;;
16967;SDS011;64862;54.398;10.126;2024-03-25T12:27:07;11.43;;;1.35;;
16967;SDS011;64862;54.398;10.126;2024-03-25T12:37:09;10.73;;;1.40;;
16967;SDS011;64862;54.398;10.126;2024-03-25T12:47:15;7.00;;;1.33;;
16967;SDS011;64862;54.398;10.126;2024-03-25T12:57:18;7.03;;;1.30;;
16967;SDS011;64862;54.398;10.126;2024-03-25T13:07:19;9.00;;;1.20;;
16967;SDS011;64862;54.398;10.126;2024-03-25T13:17:21;9.35;;;1.60;;
16967;SDS011;64862;54.398;10.126;2024-03-25T13:27:22;10.02;;;1.30;;
16967;SDS011;64862;54.398;10.126;2024-03-25T13:37:25;4.88;;;1.10;;
16967;SDS011;64862;54.398;10.126;2024-03-25T13:47:26;7.95;;;1.27;;
16967;SDS011;64862;54.398;10.126;2024-03-25T13:57:28;13.88;;;1.70;;
16967;SDS011;64862;54.398;10.126;2024-03-25T14:07:30;8.45;;;1.20;;
16967;SDS011;64862;54.398;10.126;2024-03-25T14:17:32;8.00;;;1.20;;
16967;SDS011;64862;54.398;10.126;2024-03-25T14:27:33;7.70;;;1.10;;
16967;SDS011;64862;54.398;10.126;2024-03-25T14:37:35;7.65;;;1.30;;
16967;SDS011;64862;54.398;10.126;2024-03-25T14:47:36;9.85;;;1.38;;
16967;SDS011;64862;54.398;10.126;2024-03-25T14:57:39;10.25;;;1.27;;
16967;SDS011;64862;54.398;10.126;2024-03-25T15:07:40;8.60;;;1.30;;
16967;SDS011;64862;54.398;10.126;2024-03-25T15:17:42;7.50;;;1.00;;
16967;SDS011;64862;54.398;10.126;2024-03-25T15:27:43;8.43;;;1.02;;
16967;SDS011;64862;54.398;10.126;2024-03-25T15:37:46;7.82;;;0.80;;
16967;SDS011;64862;54.398;10.126;2024-03-25T15:47:48;7.00;;;1.35;;
16967;SDS011;64862;54.398;10.126;2024-03-25T15:57:53;8.70;;;0.98;;
16967;SDS011;64862;54.398;10.126;2024-03-25T16:07:54;5.93;;;1.02;;
16967;SDS011;64862;54.398;10.126;2024-03-25T16:17:56;8.50;;;1.10;;
16967;SDS011;64862;54.398;10.126;2024-03-25T16:27:57;7.20;;;1.17;;
16967;SDS011;64862;54.398;10.126;2024-03-25T16:38:00;8.02;;;1.02;;
16967;SDS011;64862;54.398;10.126;2024-03-25T16:48:01;8.07;;;0.95;;
16967;SDS011;64862;54.398;10.126;2024-03-25T16:58:03;11.68;;;1.38;;
16967;SDS011;64862;54.398;10.126;2024-03-25T17:08:04;9.20;;;1.60;;
16967;SDS011;64862;54.398;10.126;2024-03-25T17:18:12;13.27;;;2.05;;
16967;SDS011;64862;54.398;10.126;2024-03-25T17:28:14;9.77;;;1.60;;
16967;SDS011;64862;54.398;10.126;2024-03-25T17:38:16;9.55;;;1.20;;
16967;SDS011;64862;54.398;10.126;2024-03-25T17:48:17;8.20;;;1.30;;
16967;SDS011;64862;54.398;10.126;2024-03-25T17:58:19;9.70;;;1.23;;
16967;SDS011;64862;54.398;10.126;2024-03-25T18:08:20;7.82;;;1.25;;
16967;SDS011;64862;54.398;10.126;2024-03-25T18:18:23;10.02;;;1.67;;
16967;SDS011;64862;54.398;10.126;2024-03-25T18:28:24;7.57;;;1.30;;
16967;SDS011;64862;54.398;10.126;2024-03-25T18:38:26;9.43;;;1.33;;
16967;SDS011;64862;54.398;10.126;2024-03-25T18:48:27;7.28;;;1.10;;
16967;SDS011;64862;54.398;10.126;2024-03-25T18:58:30;9.30;;;1.40;;
16967;SDS011;64862;54.398;10.126;2024-03-25T19:08:31;6.43;;;1.58;;
16967;SDS011;64862;54.398;10.126;2024-03-25T19:18:33;9.10;;;2.05;;
16967;SDS011;64862;54.398;10.126;2024-03-25T19:28:34;12.25;;;2.55;;
16967;SDS011;64862;54.398;10.126;2024-03-25T19:38:37;11.88;;;2.22;;
16967;SDS011;64862;54.398;10.126;2024-03-25T19:48:39;7.28;;;1.88;;
16967;SDS011;64862;54.398;10.126;2024-03-25T19:58:41;7.22;;;1.80;;
16967;SDS011;64862;54.398;10.126;2024-03-25T20:08:42;9.13;;;1.80;;
16967;SDS011;64862;54.398;10.126;2024-03-25T20:18:45;5.57;;;1.50;;
16967;SDS011;64862;54.398;10.126;2024-03-25T20:28:46;7.68;;;1.33;;
16967;SDS011;64862;54.398;10.126;2024-03-25T20:38:48;7.80;;;1.60;;
16967;SDS011;64862;54.398;10.126;2024-03-25T20:48:49;7.47;;;1.65;;
16967;SDS011;64862;54.398;10.126;2024-03-25T20:58:51;12.05;;;2.17;;
16967;SDS011;64862;54.398;10.126;2024-03-25T21:08:52;5.03;;;1.38;;
16967;SDS011;64862;54.398;10.126;2024-03-25T21:18:55;7.47;;;1.70;;
16967;SDS011;64862;54.398;10.126;2024-03-25T21:28:56;7.20;;;1.77;;
16967;SDS011;64862;54.398;10.126;2024-03-25T21:38:58;7.50;;;1.60;;
16967;SDS011;64862;54.398;10.126;2024-03-25T21:48:59;6.03;;;1.70;;
16967;SDS011;64862;54.398;10.126;2024-03-25T21:59:01;9.38;;;1.60;;
16967;SDS011;64862;54.398;10.126;2024-03-25T22:09:03;11.88;;;2.05;;
16967;SDS011;64862;54.398;10.126;2024-03-25T22:19:05;6.82;;;1.77;;
16967;SDS011;64862;54.398;10.126;2024-03-25T22:29:06;9.05;;;1.60;;
16967;SDS011;64862;54.398;10.126;2024-03-25T22:39:09;10.15;;;1.67;;
16967;SDS011;64862;54.398;10.126;2024-03-25T22:49:10;12.10;;;2.33;;
16967;SDS011;64862;54.398;10.126;2024-03-25T22:59:12;6.53;;;1.95;;
16967;SDS011;64862;54.398;10.126;2024-03-25T23:09:13;9.23;;;2.10;;
16967;SDS011;64862;54.398;10.126;2024-03-25T23:19:16;7.28;;;2.40;;
16967;SDS011;64862;54.398;10.126;2024-03-25T23:29:16;11.55;;;2.95;;
16967;SDS011;64862;54.398;10.126;2024-03-25T23:39:19;8.15;;;3.17;;
16967;SDS011;64862;54.398;10.126;2024-03-25T23:49:20;12.15;;;4.82;;
16967;SDS011;64862;54.398;10.126;2024-03-25T23:59:22;16.00;;;5.90;;
